Weather & Traffic



KLGB 272153Z VRB06KT 10SM FEW050 22/12 A3014 RMK AO2 SLP206 T02220122


TAF KLGB 271731Z 2718/2818 02003KT P6SM SKC FM271900 18006KT P6SM SCT100 FM272200 28008KT P6SM FEW200 FM280200 VRB03KT P6SM SKC FM280900 VRB03KT 5SM BR SKC